createdAt,value
2022-11-24T00:00:29.032Z,5.50
2022-11-24T00:04:31.967Z,4.45
2022-11-24T00:08:36.713Z,7.10
2022-11-24T00:12:39.382Z,5.53
2022-11-24T00:16:42.138Z,5.53
2022-11-24T00:20:52.413Z,3.63
2022-11-24T00:24:56.449Z,4.38
2022-11-24T00:29:00.953Z,4.13
2022-11-24T00:33:03.772Z,9.63
2022-11-24T00:37:06.515Z,5.50
2022-11-24T00:41:10.527Z,4.90
2022-11-24T00:45:14.174Z,6.45
2022-11-24T00:49:17.085Z,8.55
2022-11-24T00:53:19.750Z,7.43
2022-11-24T00:57:23.847Z,9.45
2022-11-24T01:01:28.841Z,9.85
2022-11-24T01:05:31.594Z,5.47
2022-11-24T01:09:34.317Z,4.03
2022-11-24T01:13:38.712Z,6.22
2022-11-24T01:17:41.418Z,4.40
2022-11-24T01:21:44.190Z,5.15
2022-11-24T01:25:46.949Z,6.80
2022-11-24T01:29:51.035Z,11.20
2022-11-24T01:33:54.360Z,7.63
2022-11-24T01:37:57.145Z,6.82
2022-11-24T01:42:01.968Z,7.53
2022-11-24T01:46:16.468Z,8.00
2022-11-24T01:50:19.400Z,4.20
2022-11-24T01:54:25.918Z,3.65
2022-11-24T01:58:32.434Z,6.78
2022-11-24T02:02:36.904Z,7.75
2022-11-24T02:06:41.901Z,5.95
2022-11-24T02:10:46.423Z,4.68
2022-11-24T02:14:49.372Z,4.88
2022-11-24T02:18:53.865Z,2.03
2022-11-24T02:23:03.719Z,2.22
2022-11-24T02:27:08.093Z,3.97
2022-11-24T02:31:10.935Z,2.95
2022-11-24T02:35:13.847Z,2.72
2022-11-24T02:39:17.870Z,1.92
2022-11-24T02:43:24.411Z,1.98
2022-11-24T02:47:27.427Z,3.10
2022-11-24T02:51:30.140Z,1.98
2022-11-24T02:55:32.913Z,3.47
2022-11-24T02:59:36.913Z,4.32
2022-11-24T03:03:39.628Z,3.47
2022-11-24T03:07:42.469Z,3.08
2022-11-24T03:11:45.185Z,1.85
2022-11-24T03:15:49.302Z,2.20
2022-11-24T03:19:52.013Z,1.88
2022-11-24T03:23:55.092Z,7.05
2022-11-24T03:27:58.263Z,4.40
2022-11-24T03:32:02.668Z,2.55
2022-11-24T03:36:07.189Z,1.70
2022-11-24T03:40:10.852Z,3.30
2022-11-24T03:44:13.594Z,4.18
2022-11-24T03:48:18.692Z,1.30
2022-11-24T03:52:21.389Z,7.75
2022-11-24T03:56:24.080Z,2.28
2022-11-24T04:00:27.703Z,2.33
2022-11-24T04:26:10.227Z,8.90
2022-11-24T04:30:13.329Z,2.58
2022-11-24T04:34:16.381Z,6.18
2022-11-24T04:39:19.652Z,6.70
2022-11-24T04:42:43.473Z,5.13
2022-11-24T04:46:46.350Z,4.47
2022-11-24T04:50:49.338Z,4.13
2022-11-24T04:54:52.805Z,4.72
2022-11-24T04:58:56.903Z,6.03
2022-11-24T05:02:59.632Z,6.43
2022-11-24T05:07:02.305Z,13.25
2022-11-24T05:11:06.173Z,3.95
2022-11-24T05:15:11.618Z,6.93
2022-11-24T05:19:14.533Z,5.27
2022-11-24T05:23:17.308Z,9.00
2022-11-24T05:27:20.056Z,7.95
2022-11-24T05:31:24.275Z,8.23
2022-11-24T05:35:27.018Z,15.90
2022-11-24T05:39:29.902Z,19.13
2022-11-24T05:43:32.701Z,20.88
2022-11-24T05:47:37.837Z,8.70
2022-11-24T05:51:40.580Z,13.00
2022-11-24T05:55:43.269Z,6.97
2022-11-24T05:59:46.068Z,14.05
2022-11-24T06:03:50.114Z,11.65
2022-11-24T06:07:53.272Z,9.45
2022-11-24T06:11:56.592Z,10.10
2022-11-24T06:16:00.182Z,16.30
2022-11-24T06:20:04.932Z,13.52
2022-11-24T06:24:08.538Z,5.60
2022-11-24T06:28:11.320Z,8.25
2022-11-24T06:32:14.226Z,5.88
2022-11-24T06:36:18.360Z,9.75
2022-11-24T06:40:21.078Z,11.57
2022-11-24T06:44:23.860Z,12.75
2022-11-24T06:48:27.452Z,13.07
2022-11-24T06:52:31.483Z,13.40
2022-11-24T06:56:34.729Z,7.45
2022-11-24T07:00:37.736Z,15.88
2022-11-24T07:04:40.540Z,10.13
2022-11-24T07:08:44.888Z,16.73
2022-11-24T07:12:47.670Z,12.10
2022-11-24T07:16:50.625Z,9.55
2022-11-24T07:20:53.477Z,12.30
2022-11-24T07:24:57.576Z,15.73
2022-11-24T07:29:00.289Z,14.13
2022-11-24T07:33:03.884Z,12.43
2022-11-24T07:37:06.762Z,12.20
2022-11-24T07:41:12.764Z,13.05
2022-11-24T07:45:16.532Z,16.30
2022-11-24T07:49:19.294Z,7.88
2022-11-24T07:53:22.018Z,13.30
2022-11-24T07:57:26.079Z,7.57
2022-11-24T08:01:29.193Z,5.35
2022-11-24T08:05:31.930Z,7.20
2022-11-24T08:09:34.740Z,9.27
2022-11-24T08:13:39.171Z,10.80
2022-11-24T08:17:41.882Z,8.57
2022-11-24T08:21:44.644Z,14.32
2022-11-24T08:25:47.399Z,11.40
2022-11-24T08:29:51.475Z,6.68
2022-11-24T08:33:56.996Z,7.28
2022-11-24T08:38:04.492Z,12.00
2022-11-24T08:42:07.590Z,9.50
2022-11-24T08:46:14.320Z,9.30
2022-11-24T08:50:17.879Z,7.72
2022-11-24T08:54:21.587Z,12.73
2022-11-24T08:58:24.276Z,21.25
2022-11-24T09:02:28.349Z,7.22
2022-11-24T09:06:31.543Z,9.45
2022-11-24T09:10:34.264Z,5.20
2022-11-24T09:14:36.991Z,7.03
2022-11-24T09:18:41.301Z,9.95
2022-11-24T09:22:44.026Z,11.48
2022-11-24T09:26:47.828Z,14.20
2022-11-24T09:30:50.848Z,11.27
2022-11-24T09:34:54.937Z,8.70
2022-11-24T09:38:57.673Z,13.02
2022-11-24T09:43:04.072Z,9.32
2022-11-24T09:47:17.141Z,17.92
2022-11-24T09:51:25.014Z,11.63
2022-11-24T09:55:37.763Z,4.60
2022-11-24T09:59:43.252Z,3.75
2022-11-24T10:03:48.656Z,5.18
2022-11-24T10:08:03.988Z,4.75
2022-11-24T10:12:20.846Z,5.10
2022-11-24T10:20:42.507Z,5.38
2022-11-24T10:25:02.373Z,4.53
2022-11-24T10:29:19.048Z,9.63
2022-11-24T10:37:37.658Z,8.43
2022-11-24T10:41:47.949Z,5.10
2022-11-24T10:45:51.542Z,11.63
2022-11-24T10:49:58.839Z,9.38
2022-11-24T10:54:06.770Z,11.70
2022-11-24T10:58:17.539Z,10.68
2022-11-24T11:02:36.960Z,15.88
2022-11-24T11:06:40.493Z,9.88
2022-11-24T11:10:44.977Z,7.00
2022-11-24T11:14:49.042Z,22.00
2022-11-24T11:18:51.794Z,12.32
2022-11-24T11:22:55.907Z,7.13
2022-11-24T11:27:03.162Z,23.95
2022-11-24T11:31:20.571Z,9.35
2022-11-24T11:35:27.268Z,13.55
2022-11-24T11:39:32.967Z,13.33
2022-11-24T11:43:39.701Z,18.95
2022-11-24T11:47:47.525Z,14.52
2022-11-24T11:52:04.167Z,14.07
2022-11-24T11:56:16.708Z,12.18
2022-11-24T12:00:21.882Z,7.82
2022-11-24T12:04:48.224Z,15.00
2022-11-24T12:09:19.375Z,10.20
2022-11-24T12:13:41.899Z,13.27
2022-11-24T12:17:52.647Z,25.95
2022-11-24T12:22:07.830Z,28.70
2022-11-24T12:26:19.986Z,38.97
2022-11-24T12:30:23.898Z,7.75
2022-11-24T12:34:38.418Z,1.10
2022-11-24T12:38:50.040Z,2.67
2022-11-24T12:43:00.096Z,3.47
2022-11-24T12:47:11.951Z,5.80
2022-11-24T12:51:19.860Z,5.15
2022-11-24T12:55:24.609Z,4.70
2022-11-24T12:59:34.339Z,2.25
2022-11-24T13:03:45.685Z,3.70
2022-11-24T13:07:50.894Z,6.95
2022-11-24T13:12:00.609Z,7.57
2022-11-24T13:20:41.202Z,4.68
2022-11-24T13:24:44.906Z,5.38
2022-11-24T13:29:08.909Z,7.72
2022-11-24T13:33:40.563Z,5.65
2022-11-24T13:37:51.342Z,5.60
2022-11-24T13:42:02.932Z,3.22
2022-11-24T13:46:10.903Z,10.35
2022-11-24T13:50:45.337Z,7.20
2022-11-24T13:54:48.177Z,6.10
2022-11-24T13:58:52.682Z,6.82
2022-11-24T14:03:00.866Z,3.33
2022-11-24T14:07:08.309Z,3.30
2022-11-24T14:11:15.080Z,4.05
2022-11-24T14:15:25.239Z,5.63
2022-11-24T14:19:31.043Z,2.10
2022-11-24T14:23:35.102Z,2.47
2022-11-24T14:27:40.022Z,2.20
2022-11-24T14:31:43.673Z,2.35
2022-11-24T14:35:49.030Z,2.03
2022-11-24T14:39:52.018Z,4.47
2022-11-24T14:44:16.106Z,4.93
2022-11-24T14:48:22.233Z,3.90
2022-11-24T14:52:27.041Z,2.40
2022-11-24T14:56:31.082Z,5.57
2022-11-24T15:00:34.770Z,2.92
2022-11-24T15:05:04.762Z,5.95
2022-11-24T15:09:21.867Z,6.90
2022-11-24T15:13:25.907Z,6.18
2022-11-24T15:17:30.493Z,6.40
2022-11-24T15:21:35.575Z,3.72
2022-11-24T15:25:39.763Z,4.05
2022-11-24T15:29:42.499Z,5.53
2022-11-24T15:33:45.210Z,5.32
2022-11-24T15:37:48.001Z,4.80
2022-11-24T15:41:52.267Z,8.18
2022-11-24T15:45:55.124Z,8.88
2022-11-24T15:49:57.814Z,7.95
2022-11-24T15:54:01.523Z,10.65
2022-11-24T15:58:05.978Z,10.95
2022-11-24T16:02:09.650Z,9.13
2022-11-24T16:06:22.179Z,6.55
2022-11-24T16:10:29.976Z,10.57
2022-11-24T16:14:34.390Z,7.85
2022-11-24T16:18:39.631Z,4.53
2022-11-24T16:22:42.425Z,8.65
2022-11-24T16:26:45.267Z,6.85
2022-11-24T16:30:51.042Z,7.70
2022-11-24T16:34:54.008Z,6.18
2022-11-24T16:38:56.884Z,6.55
2022-11-24T16:42:59.637Z,11.00
2022-11-24T16:47:03.918Z,7.47
2022-11-24T16:51:08.074Z,8.07
2022-11-24T16:55:11.666Z,8.40
2022-11-24T16:59:14.517Z,10.18
2022-11-24T17:03:18.641Z,12.85
2022-11-24T17:07:21.548Z,9.20
2022-11-24T17:11:25.787Z,14.07
2022-11-24T17:15:34.605Z,14.90
2022-11-24T17:19:40.736Z,5.15
2022-11-24T17:23:44.010Z,5.60
2022-11-24T17:27:46.691Z,10.18
2022-11-24T17:31:49.470Z,9.18
2022-11-24T17:35:53.597Z,12.63
2022-11-24T17:40:26.266Z,17.02
2022-11-24T17:44:19.150Z,16.98
2022-11-24T17:48:22.361Z,17.08
2022-11-24T17:52:26.488Z,11.55
2022-11-24T17:56:29.357Z,15.13
2022-11-24T18:00:32.124Z,7.50
2022-11-24T18:04:35.169Z,17.23
2022-11-24T18:08:40.949Z,14.73
2022-11-24T18:12:43.703Z,13.02
2022-11-24T18:16:46.493Z,17.88
2022-11-24T18:20:54.948Z,13.48
2022-11-24T18:24:59.046Z,24.73
2022-11-24T18:29:01.769Z,20.63
2022-11-24T18:33:04.627Z,19.27
2022-11-24T18:37:08.591Z,15.52
2022-11-24T18:41:14.659Z,15.88
2022-11-24T18:45:17.436Z,8.48
2022-11-24T18:49:20.241Z,14.63
2022-11-24T18:53:25.260Z,12.05
2022-11-24T18:57:29.324Z,16.33
2022-11-24T19:01:32.384Z,12.75
2022-11-24T19:05:35.779Z,11.25
2022-11-24T19:09:38.833Z,13.75
2022-11-24T19:13:42.884Z,15.52
2022-11-24T19:17:47.407Z,26.42
2022-11-24T19:21:50.292Z,18.85
2022-11-24T19:25:53.027Z,8.65
2022-11-24T19:29:57.108Z,11.70
2022-11-24T19:34:02.995Z,8.18
2022-11-24T19:38:05.893Z,8.77
2022-11-24T19:42:08.616Z,16.17
2022-11-24T19:46:14.698Z,12.20
2022-11-24T19:50:18.417Z,24.05
2022-11-24T19:54:21.173Z,15.05
2022-11-24T19:58:24.034Z,24.13
2022-11-24T20:02:30.413Z,10.57
2022-11-24T20:06:34.870Z,11.20
2022-11-24T20:10:39.897Z,12.20
2022-11-24T20:14:43.005Z,13.30
2022-11-24T20:18:48.600Z,17.98
2022-11-24T20:22:51.511Z,14.03
2022-11-24T20:26:58.461Z,18.13
2022-11-24T20:31:07.096Z,18.77
2022-11-24T20:35:18.076Z,11.38
2022-11-24T20:39:25.357Z,6.80
2022-11-24T20:43:31.169Z,15.85
2022-11-24T20:47:34.044Z,13.90
2022-11-24T20:51:43.832Z,10.40
2022-11-24T20:55:47.149Z,11.57
2022-11-24T20:59:52.590Z,9.48
2022-11-24T21:03:57.418Z,9.13
2022-11-24T21:08:01.634Z,11.70
2022-11-24T21:12:04.558Z,16.83
2022-11-24T21:16:13.047Z,12.95
2022-11-24T21:20:16.077Z,9.35
2022-11-24T21:24:22.665Z,8.45
2022-11-24T21:28:25.942Z,12.38
2022-11-24T21:32:29.383Z,14.65
2022-11-24T21:36:34.731Z,9.77
2022-11-24T21:40:39.685Z,12.07
2022-11-24T21:44:42.559Z,6.78
2022-11-24T21:48:45.465Z,10.18
2022-11-24T21:52:48.263Z,12.35
2022-11-24T21:56:53.880Z,8.40
2022-11-24T22:01:02.615Z,9.20
2022-11-24T22:05:06.298Z,8.07
2022-11-24T22:09:11.441Z,8.77
2022-11-24T22:13:20.323Z,7.22
2022-11-24T22:17:23.142Z,9.47
2022-11-24T22:21:30.012Z,8.80
2022-11-24T22:25:32.797Z,9.60
2022-11-24T22:29:36.911Z,11.73
2022-11-24T22:33:40.156Z,18.63
2022-11-24T22:37:43.003Z,24.02
2022-11-24T22:41:45.856Z,20.35
2022-11-24T22:45:50.001Z,13.60
2022-11-24T22:49:52.792Z,14.05
2022-11-24T22:53:58.545Z,6.63
2022-11-24T22:58:01.244Z,8.00
2022-11-24T23:02:05.789Z,12.65
2022-11-24T23:06:12.427Z,11.00
2022-11-24T23:10:15.128Z,9.68
2022-11-24T23:14:17.889Z,7.40
2022-11-24T23:18:21.980Z,6.05
2022-11-24T23:22:24.654Z,11.82
2022-11-24T23:26:29.554Z,5.45
2022-11-24T23:30:32.249Z,15.85
2022-11-24T23:34:36.589Z,8.07
2022-11-24T23:38:40.654Z,10.52
2022-11-24T23:42:43.398Z,6.45
2022-11-24T23:46:46.104Z,7.85
2022-11-24T23:50:50.144Z,6.93
2022-11-24T23:54:52.862Z,5.93
2022-11-24T23:58:55.632Z,4.43
